Kezdőlap
METAR-TAF:

METAR-TAF

Repülőterek :

Abraham Lincoln Capital Airport

Springfield, Illinois, Amerikai Egyesült Államok

földrajzi szélesség: 39-50-43N, földrajzi hosszúság: 089-41-02W, magasság: 182 m

Jelenlegi meteorológiai megfigyelések

A jelentés 34 perccel ezelõtt készült, 04:52 UTC
Szélcsend
Hőmérséklet 20°C
Páratartalom 78%
Légköri nyomás 1017 hPa
Látótávolság: 16.1 km
Derült ég

METAR: KSPI 150452Z AUTO 00000KT 10SM CLR 20/16 A3003 RMK AO2 SLP163 T02000156

Idő: 00:26 (05:26 UTC)

Előrejelzés

A jelentés 6 órával és 6 perccel ezelõtt készült, 23:20 UTC
Az előrejelzés 15-én 00 óra UTC és 15-én 24 óra UTC között érvényes
Északi szél 5 kt
Látótávolság: 10 km
Kevés felhő 25000 lábon
15-én 1400 órától UTC szerint
Délkeleti szél 7 kt
Látótávolság: 10 km
Kevés felhő 5000 lábon
Szórványos felhőzet 25000 lábon

TAF: KSPI 142320Z 1500/1524 01005KT P6SM FEW250 FM151400 13007KT P6SM FEW050 SCT250

Meteorológiai megfigyelések és előrejelzések több, mint 4000 repülőtéren (METAR és TAF jelentéseket).

A térképen piros és sárga pontok jelzik az elérhető meteorológiai állomásokat.

Mozgassa az egeret a pont fölött, hogy megjelenjen az állomás neve.

Azután kattintson az időjárási megfigyelések és előrejelzések megtekintéséhez.

A térkép megváltoztatása: kattintson a fekete keresztel jelölt zöld gombra ráközelítéshez, a vonallal jelölt zöld gombra távolításhoz, vagy a zöld nyilakra a szomszédos térképek eléréséhez.


METAR-TAF: